Oxnard, California
Current Conditions -  °F | °C
As of 5:51 PM on Tuesday 25 Nov 2014 (Local Time) from KOXR Reporting Station
Clear Clear  
Wind Chill: 61°   Ceiling: Unl
Heat Index: 61°   Visibility: 10mi
Dew Point: 48°   Wind: 6mph
Humidity: 62%   Direction: 280°W
Pressure: 30.27"   Gusts: NA
Location:  34.2°N, 119.18°W
Report Text: KOXR 260151Z 28005KT 10SM CLR 16/09 A3027 RMK AO2 SLP248 T01610089
Loading
Personal Weather Stations






























Interactive Weather Map New forecast layout! Learn more

10-Day Weather Forecast

Advertisements
Track Severe Weather on mobile